Time;durP1;ratioP1;P1;durP2;ratioP2;P2;SDS_P1;SDS_P2;PMS_P1;PMS_P2;Temp;Humidity;BMP_temperature;BMP_pressure;BME280_temperature;BME280_humidity;BME280_pressure;Samples;Min_cycle;Max_cycle;Signal;HPM_P1;HPM_P2
2023/07/20 00:00:58;;;;;;;;;;;;;;;29.52;39.81;98962.31;5053568;28;19909;-78
2023/07/20 00:03:25;;;;;;;;;;;;;;;29.53;39.58;98969.34;5053687;28;20405;-78
2023/07/20 00:05:50;;;;;;;;;;;;;;;29.51;39.75;98974.31;5053090;28;19909;-78
2023/07/20 00:08:17;;;;;;;;;;;;;;;29.48;39.86;98975.75;5034954;28;20016;-78
2023/07/20 00:10:42;;;;;;;;;;;;;;;29.50;39.54;98978.94;5052977;28;20330;-78
2023/07/20 00:13:08;;;;;;;;;;;;;;;29.47;40.01;98967.91;5052982;28;19913;-79
2023/07/20 00:15:33;;;;;;;;;;;;;;;29.45;40.42;98970.94;5035385;28;19999;-77
2023/07/20 00:17:58;;;;;;;;;;;;;;;29.44;40.57;98973.97;5035095;28;19908;-79
2023/07/20 00:20:24;;;;;;;;;;;;;;;29.39;40.16;98955.84;5052864;28;19931;-78
2023/07/20 00:22:51;;;;;;;;;;;;;;;29.37;40.39;98950.72;5034896;28;19915;-79
2023/07/20 00:25:16;;;;;;;;;;;;;;;29.38;40.43;98952.34;5052797;28;19916;-77
2023/07/20 00:27:41;;;;;;;;;;;;;;;29.37;40.06;98950.72;5052594;28;19912;-78
2023/07/20 00:30:07;;;;;;;;;;;;;;;29.34;40.32;98942.41;5052625;28;20415;-78
2023/07/20 00:32:32;;;;;;;;;;;;;;;29.30;40.49;98936.78;5052466;28;19904;-78
2023/07/20 00:34:57;;;;;;;;;;;;;;;29.34;39.63;98931.53;5034596;28;20310;-79
2023/07/20 00:37:23;;;;;;;;;;;;;;;29.28;40.44;98947.19;5034489;28;19916;-78
2023/07/20 00:39:48;;;;;;;;;;;;;;;29.29;40.35;98956.94;5052460;28;19915;-79
2023/07/20 00:42:13;;;;;;;;;;;;;;;29.23;40.10;98990.03;5052322;28;19912;-78
2023/07/20 00:44:38;;;;;;;;;;;;;;;29.21;39.95;99074.63;5034363;28;20290;-80
2023/07/20 00:47:05;;;;;;;;;;;;;;;28.98;41.04;99109.19;5052134;28;19913;-79
2023/07/20 00:49:30;;;;;;;;;;;;;;;28.67;41.05;99116.44;5052392;28;19909;-78
2023/07/20 00:51:55;;;;;;;;;;;;;;;28.53;41.98;99112.97;5052371;28;19909;-79
2023/07/20 00:54:21;;;;;;;;;;;;;;;28.45;40.80;99114.50;5052286;28;19916;-79
2023/07/20 00:56:46;;;;;;;;;;;;;;;28.55;40.33;99099.88;5034338;28;19962;-79
2023/07/20 00:59:12;;;;;;;;;;;;;;;28.48;39.58;99071.22;5051878;28;19949;-77
2023/07/20 01:01:38;;;;;;;;;;;;;;;28.59;39.50;99058.22;5051857;28;19908;-79
2023/07/20 01:04:04;;;;;;;;;;;;;;;28.68;39.38;99050.94;5051964;28;19901;-79
2023/07/20 01:06:35;;;;;;;;;;;;;;;28.79;39.21;99062.34;5052519;28;20281;-79
2023/07/20 01:09:07;;;;;;;;;;;;;;;28.80;39.08;99063.94;5052341;28;20346;-78
2023/07/20 01:11:37;;;;;;;;;;;;;;;28.83;39.19;99071.47;5052189;28;19912;-79
2023/07/20 01:14:03;;;;;;;;;;;;;;;28.83;39.32;99046.22;5034052;28;20308;-77
2023/07/20 01:16:28;;;;;;;;;;;;;;;28.82;39.83;99029.13;5034175;28;19908;-78
2023/07/20 01:18:53;;;;;;;;;;;;;;;28.78;38.96;99015.34;5052219;28;19916;-78
2023/07/20 01:21:24;;;;;;;;;;;;;;;28.79;40.13;99018.88;5052076;28;19915;-79
2023/07/20 01:24:07;;;;;;;;;;;;;;;28.77;40.08;99029.25;5052219;28;19983;-78
2023/07/20 01:26:42;;;;;;;;;;;;;;;28.78;40.51;99033.56;5034067;28;19912;-78
2023/07/20 01:29:07;;;;;;;;;;;;;;;28.77;40.44;99023.81;5051971;28;19920;-78
2023/07/20 01:31:34;;;;;;;;;;;;;;;28.76;40.56;99014.06;5052039;28;19928;-79
2023/07/20 01:34:01;;;;;;;;;;;;;;;28.76;39.83;99036.59;5052033;28;19908;-79
2023/07/20 01:36:29;;;;;;;;;;;;;;;28.69;39.99;99027.28;5051848;28;19913;-77
2023/07/20 01:38:54;;;;;;;;;;;;;;;28.68;40.75;99012.88;5051926;28;19973;-77
2023/07/20 01:41:20;;;;;;;;;;;;;;;28.67;40.26;99015.91;5051836;28;19913;-78
2023/07/20 01:43:46;;;;;;;;;;;;;;;28.71;40.64;99016.91;5033898;28;19970;-78
2023/07/20 01:46:11;;;;;;;;;;;;;;;28.71;40.72;99011.47;5051933;28;19901;-78
2023/07/20 01:48:36;;;;;;;;;;;;;;;28.66;40.42;99017.84;5051730;28;19908;-80
2023/07/20 01:51:01;;;;;;;;;;;;;;;28.65;40.93;99031.72;5051735;28;19999;-77
2023/07/20 01:53:27;;;;;;;;;;;;;;;28.66;41.10;99025.19;5051724;28;19916;-80
2023/07/20 01:55:53;;;;;;;;;;;;;;;28.64;41.20;99016.53;5033950;28;19920;-77
2023/07/20 01:58:18;;;;;;;;;;;;;;;28.62;41.63;99014.13;5051771;28;19924;-78
2023/07/20 02:00:43;;;;;;;;;;;;;;;28.62;40.82;99002.47;5052038;28;19909;-78
2023/07/20 02:03:09;;;;;;;;;;;;;;;28.60;40.39;99004.69;5051897;28;20305;-78
2023/07/20 02:05:34;;;;;;;;;;;;;;;28.59;40.10;98995.72;5033672;28;19994;-78
2023/07/20 02:07:59;;;;;;;;;;;;;;;28.55;40.65;98989.31;5051855;28;19919;-77
2023/07/20 02:10:24;;;;;;;;;;;;;;;28.49;40.94;98985.13;5033507;28;19962;-79
2023/07/20 02:12:50;;;;;;;;;;;;;;;28.45;41.13;98987.66;5051429;28;19952;-77
2023/07/20 02:15:19;;;;;;;;;;;;;;;28.39;41.55;98988.91;5055132;28;19913;-80
2023/07/20 02:17:44;;;;;;;;;;;;;;;28.35;41.69;98984.38;5055368;28;19912;-76
2023/07/20 02:20:10;;;;;;;;;;;;;;;28.32;41.69;98985.00;5055076;28;20380;-77
2023/07/20 02:22:35;;;;;;;;;;;;;;;28.30;40.89;98985.31;5055026;28;19912;-77
2023/07/20 02:25:01;;;;;;;;;;;;;;;28.30;41.57;98988.03;5055204;28;19908;-76
2023/07/20 02:27:26;;;;;;;;;;;;;;;28.29;41.18;98989.13;5055035;28;19921;-79
2023/07/20 02:29:51;;;;;;;;;;;;;;;28.16;41.86;98995.34;5037059;28;19913;-79
2023/07/20 02:32:16;;;;;;;;;;;;;;;28.07;42.17;98986.34;5036934;28;19919;-79
2023/07/20 02:34:42;;;;;;;;;;;;;;;27.98;41.67;98986.28;5054883;28;19908;-77
2023/07/20 02:37:07;;;;;;;;;;;;;;;27.97;42.23;98984.66;5054954;28;20420;-79
2023/07/20 02:39:32;;;;;;;;;;;;;;;27.94;41.18;98979.84;5054913;28;19909;-77
2023/07/20 02:41:57;;;;;;;;;;;;;;;27.94;42.09;98987.19;5055092;28;19909;-79
2023/07/20 02:44:23;;;;;;;;;;;;;;;27.94;42.31;98984.47;5054879;28;19909;-79
2023/07/20 02:46:52;;;;;;;;;;;;;;;27.90;42.85;98989.72;5054832;28;19967;-78
2023/07/20 02:49:17;;;;;;;;;;;;;;;27.88;41.69;98996.56;5054837;28;19917;-78
2023/07/20 02:51:42;;;;;;;;;;;;;;;27.85;41.45;98992.53;5054798;28;20004;-78
2023/07/20 02:54:08;;;;;;;;;;;;;;;27.76;43.30;98989.75;5036853;28;20426;-79
2023/07/20 02:56:33;;;;;;;;;;;;;;;27.61;41.93;98990.06;5054803;28;19915;-78
2023/07/20 02:58:58;;;;;;;;;;;;;;;27.48;42.03;98990.81;5054654;28;19924;-78
2023/07/20 03:01:24;;;;;;;;;;;;;;;27.38;43.48;98982.91;5036813;28;19908;-78
2023/07/20 03:03:49;;;;;;;;;;;;;;;27.29;42.34;98984.72;5054755;28;19962;-78
2023/07/20 03:06:15;;;;;;;;;;;;;;;27.23;42.65;98995.66;5054423;28;19960;-78
2023/07/20 03:08:41;;;;;;;;;;;;;;;27.17;44.16;98996.84;5054646;28;19908;-78
2023/07/20 03:11:06;;;;;;;;;;;;;;;27.11;43.24;99003.47;5054186;28;20279;-78
2023/07/20 03:13:32;;;;;;;;;;;;;;;27.06;44.44;99006.28;5054524;28;19955;-78
2023/07/20 03:15:57;;;;;;;;;;;;;;;27.02;44.10;99005.28;5054645;28;19908;-79
2023/07/20 03:18:22;;;;;;;;;;;;;;;27.02;43.41;99002.56;5054572;28;19908;-77
2023/07/20 03:20:48;;;;;;;;;;;;;;;26.99;44.23;99005.06;5056093;28;20278;-79
2023/07/20 03:23:14;;;;;;;;;;;;;;;27.00;44.29;98999.34;5058094;28;19948;-79
2023/07/20 03:25:40;;;;;;;;;;;;;;;27.05;45.23;99003.88;5053802;28;19909;-79
2023/07/20 03:28:05;;;;;;;;;;;;;;;27.00;43.31;99007.47;5036394;28;19920;-80
2023/07/20 03:30:31;;;;;;;;;;;;;;;26.92;44.64;99006.22;5054545;28;19981;-78
2023/07/20 03:32:56;;;;;;;;;;;;;;;26.94;44.43;99015.97;5054802;28;19908;-80
2023/07/20 03:35:21;;;;;;;;;;;;;;;27.01;44.44;99016.41;5054151;28;19916;-77
2023/07/20 03:37:47;;;;;;;;;;;;;;;26.99;44.54;99015.91;5054346;28;20385;-78
2023/07/20 03:40:12;;;;;;;;;;;;;;;27.03;44.01;99008.78;5054150;28;20438;-78
2023/07/20 03:42:38;;;;;;;;;;;;;;;27.01;43.52;99006.38;5054801;28;19912;-78
2023/07/20 03:45:04;;;;;;;;;;;;;;;27.00;44.11;99015.59;5038446;28;19957;-79
2023/07/20 03:47:29;;;;;;;;;;;;;;;27.02;44.45;99007.19;5058698;28;20004;-79
2023/07/20 03:49:54;;;;;;;;;;;;;;;27.04;43.47;98996.84;5036496;28;19909;-78
2023/07/20 03:52:20;;;;;;;;;;;;;;;26.99;44.17;99005.88;5054237;28;19963;-79
2023/07/20 03:54:45;;;;;;;;;;;;;;;26.99;44.04;99000.44;5054031;28;19908;-79
2023/07/20 03:57:10;;;;;;;;;;;;;;;26.98;44.15;99001.56;5053467;28;19959;-77
2023/07/20 03:59:37;;;;;;;;;;;;;;;26.96;44.52;99000.22;5053413;28;19917;-78
2023/07/20 04:02:02;;;;;;;;;;;;;;;26.99;44.99;98999.66;5035695;28;20059;-78
2023/07/20 04:04:27;;;;;;;;;;;;;;;27.02;44.16;98999.84;5053355;28;20011;-77
2023/07/20 04:06:53;;;;;;;;;;;;;;;27.12;44.15;98991.53;5053239;28;19912;-78
2023/07/20 04:09:18;;;;;;;;;;;;;;;27.20;43.55;98995.44;5035541;28;19909;-77
2023/07/20 04:11:43;;;;;;;;;;;;;;;27.23;44.55;98992.94;5053317;28;19962;-77
2023/07/20 04:14:08;;;;;;;;;;;;;;;27.28;44.22;98983.91;5035595;28;19909;-79
2023/07/20 04:16:34;;;;;;;;;;;;;;;27.36;43.84;98987.81;5035583;28;19966;-79
2023/07/20 04:18:59;;;;;;;;;;;;;;;27.40;44.45;98989.63;5053154;28;19909;-78
2023/07/20 04:21:26;;;;;;;;;;;;;;;27.46;43.70;98993.84;5035139;28;20313;-78
2023/07/20 04:23:51;;;;;;;;;;;;;;;27.47;43.97;98990.03;5052882;28;19905;-78
2023/07/20 04:26:17;;;;;;;;;;;;;;;27.42;43.66;98978.47;5052607;28;19912;-79
2023/07/20 04:28:42;;;;;;;;;;;;;;;27.39;45.14;98976.38;5052713;28;19908;-76
2023/07/20 04:31:12;;;;;;;;;;;;;;;27.40;43.91;98978.78;5034664;28;19963;-78
2023/07/20 04:33:37;;;;;;;;;;;;;;;27.44;44.42;98976.25;5052683;28;19953;-78
2023/07/20 04:36:03;;;;;;;;;;;;;;;27.48;44.46;98975.34;5052000;28;19948;-78
2023/07/20 04:38:28;;;;;;;;;;;;;;;27.50;43.89;98981.31;5052348;28;19909;-78
2023/07/20 04:40:53;;;;;;;;;;;;;;;27.50;43.59;98985.94;5052565;28;19909;-79
2023/07/20 04:43:18;;;;;;;;;;;;;;;27.50;43.47;98985.94;5052512;28;19909;-78
2023/07/20 04:45:44;;;;;;;;;;;;;;;27.50;43.61;98983.22;5052400;28;19915;-78
2023/07/20 04:48:11;;;;;;;;;;;;;;;27.45;43.89;98986.81;5052239;28;19912;-79
2023/07/20 04:50:36;;;;;;;;;;;;;;;27.47;45.51;98989.22;5052263;28;19909;-79
2023/07/20 04:53:02;;;;;;;;;;;;;;;27.48;44.41;98986.19;5034256;28;19915;-79
2023/07/20 04:55:27;;;;;;;;;;;;;;;27.48;44.12;99001.66;5052319;28;20389;-79
2023/07/20 04:57:53;;;;;;;;;;;;;;;27.50;43.67;98996.78;5034305;28;20420;-77
2023/07/20 05:00:19;;;;;;;;;;;;;;;27.50;44.36;98996.78;5052265;28;20297;-77
2023/07/20 05:02:44;;;;;;;;;;;;;;;27.53;44.16;99004.31;5052396;28;19908;-79
2023/07/20 05:05:09;;;;;;;;;;;;;;;27.52;44.69;99000.00;5034192;28;19909;-78
2023/07/20 05:07:34;;;;;;;;;;;;;;;27.59;43.93;98997.69;5052082;28;20346;-77
2023/07/20 05:10:00;;;;;;;;;;;;;;;27.70;44.00;99001.81;5051841;28;19908;-78
2023/07/20 05:12:25;;;;;;;;;;;;;;;27.81;44.54;99000.47;5051736;28;19909;-78
2023/07/20 05:14:51;;;;;;;;;;;;;;;27.89;44.21;99009.81;5033872;28;19908;-78
2023/07/20 05:17:16;;;;;;;;;;;;;;;27.95;43.89;98999.66;5051534;28;19909;-79
2023/07/20 05:19:41;;;;;;;;;;;;;;;28.05;43.93;99004.84;5051530;28;19908;-78
2023/07/20 05:22:06;;;;;;;;;;;;;;;28.16;43.83;98985.31;5051480;28;19909;-78
2023/07/20 05:24:32;;;;;;;;;;;;;;;28.27;43.23;98982.41;5051408;28;19915;-77
2023/07/20 05:26:58;;;;;;;;;;;;;;;28.33;43.02;98971.13;5033665;28;19920;-79
2023/07/20 05:29:23;;;;;;;;;;;;;;;28.43;42.96;98967.34;5051632;28;20071;-78
2023/07/20 05:31:49;;;;;;;;;;;;;;;28.50;42.66;98972.34;5051440;28;19988;-78
2023/07/20 05:34:14;;;;;;;;;;;;;;;28.59;42.18;98975.91;5051536;28;19999;-78
2023/07/20 05:36:39;;;;;;;;;;;;;;;28.67;42.00;98983.31;5033540;28;19981;-78
2023/07/20 05:39:05;;;;;;;;;;;;;;;28.74;42.24;98980.97;5051316;28;19909;-78
2023/07/20 05:41:30;;;;;;;;;;;;;;;28.83;42.12;98970.94;5033713;28;20363;-78
2023/07/20 05:43:55;;;;;;;;;;;;;;;28.89;42.23;98979.78;5051461;28;19908;-78
2023/07/20 05:46:20;;;;;;;;;;;;;;;28.94;41.89;98976.94;5051184;28;20411;-78
2023/07/20 05:48:46;;;;;;;;;;;;;;;28.97;42.19;98966.25;5052527;28;19909;-77
2023/07/20 05:51:11;;;;;;;;;;;;;;;29.03;42.72;98969.66;5056008;28;19908;-78
2023/07/20 05:53:36;;;;;;;;;;;;;;;29.08;41.38;98974.94;5037925;28;20274;-79
2023/07/20 05:56:02;;;;;;;;;;;;;;;29.05;42.09;98973.66;5055734;28;19948;-77
2023/07/20 05:58:28;;;;;;;;;;;;;;;29.11;42.05;98982.47;5037532;28;20015;-80
2023/07/20 06:00:53;;;;;;;;;;;;;;;29.16;41.91;98978.81;5055505;28;20000;-77
2023/07/20 06:03:21;;;;;;;;;;;;;;;29.21;42.39;98981.41;5055431;28;19901;-78
2023/07/20 06:05:46;;;;;;;;;;;;;;;29.24;42.12;98973.41;5055726;28;19909;-77
2023/07/20 06:08:11;;;;;;;;;;;;;;;29.28;42.04;98970.84;5055530;28;20436;-77
2023/07/20 06:10:36;;;;;;;;;;;;;;;29.31;41.54;98970.22;5037729;28;19920;-79
2023/07/20 06:13:02;;;;;;;;;;;;;;;29.28;41.80;98976.31;5055315;28;19908;-78
2023/07/20 06:15:36;;;;;;;;;;;;;;;29.27;41.58;98969.25;5055170;28;20423;-77
2023/07/20 06:18:01;;;;;;;;;;;;;;;29.26;41.31;98963.03;5055098;28;19931;-78
2023/07/20 06:20:27;;;;;;;;;;;;;;;29.28;41.20;98965.41;5055053;28;20377;-78
2023/07/20 06:22:52;;;;;;;;;;;;;;;29.29;41.65;98964.31;5054760;28;20390;-77
2023/07/20 06:25:17;;;;;;;;;;;;;;;29.37;41.63;98966.25;5054944;28;19909;-79
2023/07/20 06:27:43;;;;;;;;;;;;;;;29.42;41.31;98969.63;5054702;28;19912;-76
2023/07/20 06:30:08;;;;;;;;;;;;;;;29.48;41.41;98958.63;5054784;28;19958;-78
2023/07/20 06:32:34;;;;;;;;;;;;;;;29.53;41.74;98956.56;5054630;28;19908;-78
2023/07/20 06:34:59;;;;;;;;;;;;;;;29.58;41.31;98950.97;5060854;28;19908;-78
2023/07/20 06:37:25;;;;;;;;;;;;;;;29.58;41.50;98948.25;5039423;28;20443;-78
2023/07/20 06:39:50;;;;;;;;;;;;;;;29.61;41.32;98947.59;5054843;28;19909;-78
2023/07/20 06:42:15;;;;;;;;;;;;;;;29.67;40.68;98951.78;5054965;28;19962;-77
2023/07/20 06:44:40;;;;;;;;;;;;;;;29.72;40.68;98950.81;5055094;28;19962;-78
2023/07/20 06:47:06;;;;;;;;;;;;;;;29.69;40.89;98959.63;5054609;28;19912;-78
2023/07/20 06:49:31;;;;;;;;;;;;;;;29.69;40.70;98954.97;5054619;28;19913;-78
2023/07/20 06:51:56;;;;;;;;;;;;;;;29.73;41.21;98953.25;5054647;28;19916;-79
2023/07/20 06:54:21;;;;;;;;;;;;;;;29.80;41.23;98952.78;5054354;28;20396;-77
2023/07/20 06:56:47;;;;;;;;;;;;;;;29.86;40.85;98948.78;5054798;28;20309;-79
2023/07/20 06:59:12;;;;;;;;;;;;;;;29.94;40.18;98942.53;5059635;28;19924;-78
2023/07/20 07:01:39;;;;;;;;;;;;;;;29.97;40.75;98941.09;5056501;28;19966;-79
2023/07/20 07:04:05;;;;;;;;;;;;;;;29.99;40.45;98938.84;5054305;28;19908;-78
2023/07/20 07:06:30;;;;;;;;;;;;;;;30.04;40.94;98933.28;5054159;28;19991;-76
2023/07/20 07:08:55;;;;;;;;;;;;;;;30.12;40.79;98934.41;5054333;28;20003;-79
2023/07/20 07:11:21;;;;;;;;;;;;;;;30.19;41.88;98940.94;5054128;28;19908;-79
2023/07/20 07:13:49;;;;;;;;;;;;;;;30.26;40.39;98940.47;5036190;28;19971;-78
2023/07/20 07:16:18;;;;;;;;;;;;;;;30.36;40.72;98940.13;5054004;28;20389;-77
2023/07/20 07:18:43;;;;;;;;;;;;;;;30.41;40.54;98929.06;5051750;28;19992;-77
2023/07/20 07:21:08;;;;;;;;;;;;;;;30.47;40.28;98927.81;5052566;28;19995;-79
2023/07/20 07:23:34;;;;;;;;;;;;;;;30.53;40.30;98918.31;5050827;28;19913;-78
2023/07/20 07:25:59;;;;;;;;;;;;;;;30.60;40.28;98932.28;5052006;28;19918;-77
2023/07/20 07:28:24;;;;;;;;;;;;;;;30.63;40.32;98923.47;5053394;28;20405;-79
2023/07/20 07:30:49;;;;;;;;;;;;;;;30.70;40.16;98925.69;5020274;28;19955;-79
2023/07/20 07:33:15;;;;;;;;;;;;;;;30.79;40.05;98931.09;5033568;28;19913;-79
2023/07/20 07:35:40;;;;;;;;;;;;;;;30.85;39.96;98929.78;5015693;28;19916;-79
2023/07/20 07:38:06;;;;;;;;;;;;;;;30.88;39.51;98931.88;5033654;28;19909;-77
2023/07/20 07:40:31;;;;;;;;;;;;;;;30.88;39.79;98932.66;5026475;28;19920;-78
2023/07/20 07:42:57;;;;;;;;;;;;;;;30.97;40.04;98927.19;5051134;28;19919;-77
2023/07/20 07:45:22;;;;;;;;;;;;;;;31.05;39.10;98929.06;5053232;28;19999;-76
2023/07/20 07:47:47;;;;;;;;;;;;;;;31.15;38.98;98917.00;5052910;28;19920;-79
2023/07/20 07:50:12;;;;;;;;;;;;;;;31.24;39.27;98915.06;5035169;28;20366;-76
2023/07/20 07:52:38;;;;;;;;;;;;;;;31.34;39.19;98909.22;5053328;28;19908;-79
2023/07/20 07:55:04;;;;;;;;;;;;;;;31.44;39.21;98918.94;5035039;28;19909;-79
2023/07/20 07:57:29;;;;;;;;;;;;;;;31.52;38.38;98929.81;5052736;28;19944;-78
2023/07/20 07:59:54;;;;;;;;;;;;;;;31.57;38.31;98935.06;5052965;28;19912;-79
2023/07/20 08:02:19;;;;;;;;;;;;;;;31.64;37.96;98934.53;5053115;28;19920;-78
2023/07/20 08:04:45;;;;;;;;;;;;;;;31.66;37.93;98928.75;5035096;28;20007;-78
2023/07/20 08:07:10;;;;;;;;;;;;;;;31.69;37.88;98926.16;5048534;28;20308;-78
2023/07/20 08:09:35;;;;;;;;;;;;;;;31.73;37.70;98932.59;5048731;28;19913;-79
2023/07/20 08:12:00;;;;;;;;;;;;;;;31.79;37.56;98919.53;5049929;28;19917;-77
2023/07/20 08:14:25;;;;;;;;;;;;;;;31.87;37.74;98919.47;5052421;28;20316;-77
2023/07/20 08:16:51;;;;;;;;;;;;;;;31.97;37.98;98926.47;5052830;28;19909;-79
2023/07/20 08:19:16;;;;;;;;;;;;;;;32.08;37.68;98926.88;5048927;28;19913;-79
2023/07/20 08:21:42;;;;;;;;;;;;;;;32.17;37.59;98935.78;5051316;28;19913;-78
2023/07/20 08:24:07;;;;;;;;;;;;;;;32.29;37.78;98935.06;5052628;28;19924;-78
2023/07/20 08:26:32;;;;;;;;;;;;;;;32.35;36.78;98934.50;5045857;28;19905;-79
2023/07/20 08:28:57;;;;;;;;;;;;;;;32.38;36.66;98938.50;5032740;28;19908;-79
2023/07/20 08:31:23;;;;;;;;;;;;;;;32.45;36.92;98930.53;5027291;28;19913;-79
2023/07/20 08:33:48;;;;;;;;;;;;;;;32.52;36.49;98939.00;5031142;28;20344;-77
2023/07/20 08:36:13;;;;;;;;;;;;;;;32.52;36.14;98925.31;5049909;28;19912;-77
2023/07/20 08:38:39;;;;;;;;;;;;;;;32.57;35.68;98922.38;5046396;28;19908;-79
2023/07/20 08:41:04;;;;;;;;;;;;;;;32.68;35.78;98914.53;5050460;28;19999;-79
2023/07/20 08:43:30;;;;;;;;;;;;;;;32.75;35.92;98912.88;5049028;28;19912;-78
2023/07/20 08:45:56;;;;;;;;;;;;;;;32.86;35.11;98915.97;5051017;28;19913;-78
2023/07/20 08:48:21;;;;;;;;;;;;;;;32.98;35.15;98912.44;5051213;28;20032;-78
2023/07/20 08:50:49;;;;;;;;;;;;;;;33.05;34.65;98912.69;5050673;28;20421;-77
2023/07/20 08:53:14;;;;;;;;;;;;;;;33.18;35.03;98906.84;5028212;28;20389;-78
2023/07/20 08:55:40;;;;;;;;;;;;;;;33.29;34.71;98907.19;5032346;28;19971;-78
2023/07/20 08:58:08;;;;;;;;;;;;;;;33.43;34.71;98904.91;5032194;28;19917;-77
2023/07/20 09:00:34;;;;;;;;;;;;;;;33.54;34.39;98910.75;5032127;28;19948;-78
2023/07/20 09:03:02;;;;;;;;;;;;;;;33.73;34.68;98921.06;5049009;28;19912;-77
2023/07/20 09:05:27;;;;;;;;;;;;;;;33.92;34.15;98906.78;5051375;28;20467;-77
2023/07/20 09:07:53;;;;;;;;;;;;;;;34.05;33.74;98906.38;5051231;28;19917;-80
2023/07/20 09:10:20;;;;;;;;;;;;;;;34.17;33.37;98902.78;5052174;28;19908;-79
2023/07/20 09:12:46;;;;;;;;;;;;;;;34.33;33.10;98905.63;5051449;28;20412;-76
2023/07/20 09:15:12;;;;;;;;;;;;;;;34.40;32.84;98908.53;5052416;28;19909;-79
2023/07/20 09:17:40;;;;;;;;;;;;;;;34.53;32.79;98909.25;5051085;28;19979;-78
2023/07/20 09:20:10;;;;;;;;;;;;;;;34.59;33.19;98911.41;5051809;28;19909;-76
2023/07/20 09:22:36;;;;;;;;;;;;;;;34.69;32.92;98908.13;5051434;28;19916;-79
2023/07/20 09:25:01;;;;;;;;;;;;;;;34.88;32.88;98910.19;5051639;28;19913;-77
2023/07/20 09:27:49;;;;;;;;;;;;;;;35.02;32.65;98909.75;5050854;28;19921;-78
2023/07/20 09:30:16;;;;;;;;;;;;;;;35.15;32.15;98894.00;5041105;28;19931;-77
2023/07/20 09:32:45;;;;;;;;;;;;;;;35.34;30.43;98894.84;5051531;28;19909;-79
2023/07/20 09:35:14;;;;;;;;;;;;;;;35.48;31.57;98891.63;5051565;28;19909;-79
2023/07/20 09:37:39;;;;;;;;;;;;;;;35.64;30.68;98892.38;5033669;28;20412;-78
2023/07/20 09:40:06;;;;;;;;;;;;;;;35.78;31.15;98880.91;5032804;28;19952;-79
2023/07/20 09:42:31;;;;;;;;;;;;;;;35.95;30.88;98877.75;5050759;28;19916;-79
2023/07/20 09:44:56;;;;;;;;;;;;;;;36.18;30.17;98879.75;5050697;28;19905;-78
2023/07/20 09:47:22;;;;;;;;;;;;;;;36.18;29.52;98883.28;5044775;28;20408;-77
2023/07/20 09:49:48;;;;;;;;;;;;;;;36.35;30.45;98882.03;5051501;28;19916;-78
2023/07/20 09:52:13;;;;;;;;;;;;;;;36.56;29.99;98873.41;5033476;28;19948;-78
2023/07/20 09:54:38;;;;;;;;;;;;;;;36.73;29.41;98872.91;5047763;28;19916;-77
2023/07/20 09:57:06;;;;;;;;;;;;;;;36.90;29.35;98864.16;5051143;28;19951;-78
2023/07/20 09:59:32;;;;;;;;;;;;;;;37.08;29.46;98861.66;5051149;28;19917;-79
2023/07/20 10:01:59;;;;;;;;;;;;;;;37.18;29.78;98855.56;5049394;28;19912;-77
2023/07/20 10:04:25;;;;;;;;;;;;;;;37.39;28.21;98846.03;5051187;28;19908;-77
2023/07/20 10:06:54;;;;;;;;;;;;;;;37.55;28.88;98841.13;5048869;28;19917;-78
2023/07/20 10:09:21;;;;;;;;;;;;;;;37.73;28.44;98844.13;5049803;28;19913;-78
2023/07/20 10:11:49;;;;;;;;;;;;;;;37.87;27.31;98846.22;5051058;28;19912;-77
2023/07/20 10:14:19;;;;;;;;;;;;;;;37.97;27.17;98845.59;5051169;28;19909;-78
2023/07/20 10:16:49;;;;;;;;;;;;;;;38.09;28.18;98839.81;5051043;28;19908;-78
2023/07/20 10:19:25;;;;;;;;;;;;;;;38.21;27.41;98828.53;5048663;28;19912;-77
2023/07/20 10:21:56;;;;;;;;;;;;;;;38.29;26.99;98821.91;5048492;28;19917;-79
2023/07/20 10:24:22;;;;;;;;;;;;;;;38.45;28.37;98811.41;5049555;28;19948;-78
2023/07/20 10:26:47;;;;;;;;;;;;;;;38.36;27.31;98805.44;5050440;28;20411;-77
2023/07/20 10:29:14;;;;;;;;;;;;;;;38.42;28.32;98797.59;5032104;28;20003;-78
2023/07/20 10:31:40;;;;;;;;;;;;;;;38.54;27.16;98793.75;5047645;28;19966;-78
2023/07/20 10:34:05;;;;;;;;;;;;;;;38.73;26.51;98799.06;5049626;28;19949;-77
2023/07/20 10:36:30;;;;;;;;;;;;;;;38.85;25.27;98789.66;5043338;28;19908;-78
2023/07/20 10:38:57;;;;;;;;;;;;;;;39.03;26.06;98796.88;5053729;28;20444;-78
2023/07/20 10:41:28;;;;;;;;;;;;;;;39.22;26.18;98800.53;5053250;28;20325;-76
2023/07/20 10:44:03;;;;;;;;;;;;;;;39.35;24.97;98799.03;5054569;28;19909;-77
2023/07/20 10:46:35;;;;;;;;;;;;;;;39.39;26.49;98802.59;5053804;28;19951;-77
2023/07/20 10:49:04;;;;;;;;;;;;;;;39.40;25.24;98793.16;5053680;28;21041;-76
2023/07/20 10:51:29;;;;;;;;;;;;;;;39.50;24.88;98795.19;5054437;28;19975;-76
2023/07/20 10:53:56;;;;;;;;;;;;;;;39.70;24.39;98785.38;5053615;28;20356;-78
2023/07/20 10:56:23;;;;;;;;;;;;;;;39.84;25.86;98789.38;5053018;28;19939;-79
2023/07/20 10:58:48;;;;;;;;;;;;;;;39.90;24.12;98785.81;5052346;28;19921;-79
2023/07/20 11:01:17;;;;;;;;;;;;;;;40.01;25.22;98786.66;5052678;28;19919;-78
2023/07/20 11:03:44;;;;;;;;;;;;;;;40.11;25.14;98781.53;5035457;28;19965;-79
2023/07/20 11:06:27;;;;;;;;;;;;;;;40.27;23.65;98774.44;5044773;28;19916;-77
2023/07/20 11:08:55;;;;;;;;;;;;;;;40.29;23.20;98772.06;5053257;28;20011;-79
2023/07/20 11:11:28;;;;;;;;;;;;;;;40.28;25.37;98773.25;5053196;28;19912;-80
2023/07/20 11:13:57;;;;;;;;;;;;;;;40.42;23.48;98755.91;5053890;28;20282;-79
2023/07/20 11:16:38;;;;;;;;;;;;;;;40.47;25.01;98752.72;5045786;28;19919;-78
2023/07/20 11:19:04;;;;;;;;;;;;;;;40.53;25.54;98742.03;5048849;28;19913;-78
2023/07/20 11:21:36;;;;;;;;;;;;;;;40.68;23.67;98731.75;5053160;28;19913;-79
2023/07/20 11:24:02;;;;;;;;;;;;;;;40.69;24.75;98728.56;5053976;28;19916;-78
2023/07/20 11:26:28;;;;;;;;;;;;;;;40.78;22.93;98733.69;5053830;28;20305;-77
2023/07/20 11:28:53;;;;;;;;;;;;;;;41.01;23.77;98727.72;5053666;28;19920;-79
2023/07/20 11:31:18;;;;;;;;;;;;;;;41.11;24.48;98726.91;5052438;28;19921;-79
2023/07/20 11:33:44;;;;;;;;;;;;;;;41.14;22.53;98713.03;5052854;28;19920;-77
2023/07/20 11:36:09;;;;;;;;;;;;;;;41.01;23.76;98720.22;5052303;28;19956;-79
2023/07/20 11:38:34;;;;;;;;;;;;;;;41.08;23.49;98717.41;5051647;28;19919;-77
2023/07/20 11:41:00;;;;;;;;;;;;;;;41.27;22.55;98702.31;5052578;28;19912;-78
2023/07/20 11:43:25;;;;;;;;;;;;;;;41.39;23.34;98707.41;5053196;28;20401;-79
2023/07/20 11:45:51;;;;;;;;;;;;;;;41.47;22.60;98706.16;5051049;28;19913;-77
2023/07/20 11:48:16;;;;;;;;;;;;;;;41.47;21.72;98703.38;5021078;28;19970;-79
2023/07/20 11:50:42;;;;;;;;;;;;;;;41.52;22.64;98691.09;5015426;28;19970;-77
2023/07/20 11:53:08;;;;;;;;;;;;;;;41.54;22.40;98685.94;5033197;28;19992;-79
2023/07/20 11:55:33;;;;;;;;;;;;;;;41.56;23.53;98686.31;5036332;28;19905;-80
2023/07/20 11:58:05;;;;;;;;;;;;;;;41.62;22.17;98679.19;5053120;28;19916;-78
2023/07/20 12:00:30;;;;;;;;;;;;;;;41.74;22.16;98677.91;5051173;28;20012;-79
2023/07/20 12:02:56;;;;;;;;;;;;;;;41.85;22.70;98673.88;5053004;28;20412;-77
2023/07/20 12:05:24;;;;;;;;;;;;;;;41.97;21.20;98666.25;5053462;28;20004;-79
2023/07/20 12:07:50;;;;;;;;;;;;;;;42.15;22.38;98666.91;5051168;28;19925;-78
2023/07/20 12:10:23;;;;;;;;;;;;;;;42.17;21.49;98665.28;5052899;28;19920;-79
2023/07/20 12:12:48;;;;;;;;;;;;;;;42.16;21.07;98662.91;5041034;28;19959;-78
2023/07/20 12:15:14;;;;;;;;;;;;;;;42.14;21.86;98660.56;5050956;28;20393;-79
2023/07/20 12:17:46;;;;;;;;;;;;;;;42.25;21.09;98654.91;5050394;28;19920;-76
2023/07/20 12:20:11;;;;;;;;;;;;;;;42.39;22.33;98651.22;5034799;28;19923;-79
2023/07/20 12:22:43;;;;;;;;;;;;;;;42.45;22.33;98652.38;5052574;28;20038;-78
2023/07/20 12:25:09;;;;;;;;;;;;;;;42.51;22.18;98656.28;5039483;28;20286;-76
2023/07/20 12:27:41;;;;;;;;;;;;;;;42.33;21.82;98658.38;5034802;28;20015;-79
2023/07/20 12:30:07;;;;;;;;;;;;;;;42.43;21.58;98658.31;5052936;28;19909;-76
2023/07/20 12:32:32;;;;;;;;;;;;;;;42.31;21.70;98658.00;5052224;28;19909;-79
2023/07/20 12:35:00;;;;;;;;;;;;;;;41.99;21.37;98655.53;5052788;28;20305;-77
2023/07/20 12:37:25;;;;;;;;;;;;;;;41.80;21.92;98646.56;5052911;28;19909;-76
2023/07/20 12:39:51;;;;;;;;;;;;;;;41.76;22.47;98650.56;5052840;28;19908;-79
2023/07/20 12:42:16;;;;;;;;;;;;;;;41.62;22.52;98651.47;5050612;28;19915;-78